createdAt,value
2023-04-19T00:01:16.887Z,8.57
2023-04-19T00:03:43.778Z,8.54
2023-04-19T00:06:10.948Z,8.51
2023-04-19T00:08:37.650Z,8.53
2023-04-19T00:11:04.310Z,8.49
2023-04-19T00:13:31.015Z,8.48
2023-04-19T00:15:57.588Z,8.47
2023-04-19T00:18:24.324Z,8.52
2023-04-19T00:20:51.266Z,8.55
2023-04-19T00:23:18.067Z,8.52
2023-04-19T00:25:49.168Z,8.50
2023-04-19T00:28:16.309Z,8.54
2023-04-19T00:30:42.929Z,8.56
2023-04-19T00:33:12.952Z,8.57
2023-04-19T00:35:42.517Z,8.55
2023-04-19T00:38:09.175Z,8.57
2023-04-19T00:40:37.102Z,8.53
2023-04-19T00:43:03.805Z,8.44
2023-04-19T00:45:32.938Z,8.36
2023-04-19T00:48:00.986Z,8.34
2023-04-19T00:50:27.815Z,8.34
2023-04-19T00:52:56.359Z,8.21
2023-04-19T00:55:23.779Z,8.28
2023-04-19T00:57:52.221Z,8.23
2023-04-19T01:00:20.071Z,8.17
2023-04-19T01:02:48.002Z,8.17
2023-04-19T01:05:15.304Z,8.15
2023-04-19T01:07:43.119Z,8.10
2023-04-19T01:10:10.653Z,8.05
2023-04-19T01:12:37.311Z,8.08
2023-04-19T01:15:04.454Z,8.05
2023-04-19T01:17:32.976Z,8.18
2023-04-19T01:20:04.543Z,8.13
2023-04-19T01:22:32.081Z,8.10
2023-04-19T01:24:59.080Z,8.10
2023-04-19T01:27:25.736Z,8.15
2023-04-19T01:29:52.546Z,8.15
2023-04-19T01:32:19.152Z,8.08
2023-04-19T01:34:45.876Z,8.07
2023-04-19T01:37:12.458Z,8.05
2023-04-19T01:39:39.103Z,8.08
2023-04-19T01:42:05.778Z,8.06
2023-04-19T01:44:32.440Z,8.02
2023-04-19T01:46:59.086Z,7.95
2023-04-19T01:49:26.004Z,7.91
2023-04-19T01:54:20.225Z,7.90
2023-04-19T01:56:46.839Z,7.80
2023-04-19T01:59:13.464Z,7.73
2023-04-19T02:01:40.027Z,7.68
2023-04-19T02:04:08.039Z,7.63
2023-04-19T02:06:34.673Z,7.64
2023-04-19T02:09:01.391Z,7.63
2023-04-19T02:11:28.075Z,7.65
2023-04-19T02:13:54.705Z,7.62
2023-04-19T02:16:21.395Z,7.63
2023-04-19T02:18:48.337Z,7.58
2023-04-19T02:21:15.026Z,7.58
2023-04-19T02:23:41.726Z,7.66
2023-04-19T02:26:08.574Z,7.70
2023-04-19T02:28:35.279Z,7.57
2023-04-19T02:31:06.124Z,7.55
2023-04-19T02:33:32.784Z,7.51
2023-04-19T02:35:59.395Z,7.48
2023-04-19T02:38:25.990Z,7.46
2023-04-19T02:40:52.586Z,7.44
2023-04-19T02:43:19.214Z,7.38
2023-04-19T02:45:45.893Z,7.35
2023-04-19T02:48:12.664Z,7.32
2023-04-19T02:50:39.357Z,7.28
2023-04-19T02:53:07.076Z,7.29
2023-04-19T02:55:33.803Z,7.33
2023-04-19T02:58:00.488Z,7.28
2023-04-19T03:00:27.253Z,7.21
2023-04-19T03:02:56.088Z,7.18
2023-04-19T03:05:23.619Z,7.13
2023-04-19T03:07:50.346Z,7.14
2023-04-19T03:10:17.245Z,7.08
2023-04-19T03:12:43.844Z,7.05
2023-04-19T03:15:11.150Z,7.09
2023-04-19T03:17:37.881Z,7.05
2023-04-19T03:20:09.864Z,7.04
2023-04-19T03:22:36.848Z,7.06
2023-04-19T03:25:04.808Z,6.98
2023-04-19T03:27:31.376Z,6.99
2023-04-19T03:29:58.247Z,6.97
2023-04-19T03:32:25.039Z,6.96
2023-04-19T03:34:51.670Z,7.00
2023-04-19T03:37:18.296Z,6.97
2023-04-19T03:39:44.970Z,6.93
2023-04-19T03:42:11.556Z,6.94
2023-04-19T03:44:38.282Z,6.88
2023-04-19T03:47:04.930Z,6.89
2023-04-19T03:49:31.601Z,6.82
2023-04-19T03:51:58.239Z,6.78
2023-04-19T03:54:24.865Z,6.71
2023-04-19T03:56:51.420Z,6.75
2023-04-19T03:59:18.096Z,6.77
2023-04-19T04:01:44.744Z,6.71
2023-04-19T04:04:12.768Z,6.72
2023-04-19T04:06:39.512Z,6.64
2023-04-19T04:09:06.124Z,6.65
2023-04-19T04:11:32.737Z,6.56
2023-04-19T04:13:59.347Z,6.46
2023-04-19T04:16:26.093Z,6.40
2023-04-19T04:18:52.748Z,6.33
2023-04-19T04:21:19.494Z,6.34
2023-04-19T04:23:47.272Z,6.26
2023-04-19T04:26:14.075Z,6.06
2023-04-19T04:28:40.948Z,6.10
2023-04-19T04:31:07.638Z,6.04
2023-04-19T04:33:34.234Z,6.00
2023-04-19T04:36:00.886Z,5.95
2023-04-19T04:38:27.492Z,5.90
2023-04-19T04:40:55.736Z,5.83
2023-04-19T04:43:24.043Z,5.78
2023-04-19T04:45:50.809Z,5.72
2023-04-19T04:48:17.739Z,5.67
2023-04-19T04:50:44.518Z,5.52
2023-04-19T04:53:13.161Z,5.49
2023-04-19T04:55:40.012Z,5.40
2023-04-19T04:58:07.068Z,5.40
2023-04-19T05:00:33.831Z,5.39
2023-04-19T05:03:00.852Z,5.35
2023-04-19T05:05:27.594Z,5.22
2023-04-19T05:07:54.181Z,5.21
2023-04-19T05:10:21.085Z,5.24
2023-04-19T05:12:47.654Z,5.22
2023-04-19T05:15:14.316Z,5.22
2023-04-19T05:17:43.177Z,5.20
2023-04-19T05:20:10.959Z,5.20
2023-04-19T05:22:37.931Z,5.18
2023-04-19T05:25:05.567Z,5.20
2023-04-19T05:27:32.515Z,5.15
2023-04-19T05:29:59.116Z,5.20
2023-04-19T05:32:26.330Z,5.18
2023-04-19T05:34:53.117Z,5.21
2023-04-19T05:37:19.745Z,5.18
2023-04-19T05:39:46.371Z,5.10
2023-04-19T05:42:12.961Z,5.18
2023-04-19T05:44:39.590Z,5.16
2023-04-19T05:47:06.188Z,5.09
2023-04-19T05:49:32.776Z,5.08
2023-04-19T05:51:59.410Z,5.17
2023-04-19T05:54:26.270Z,5.20
2023-04-19T05:56:52.887Z,5.21
2023-04-19T05:59:19.511Z,5.25
2023-04-19T06:01:46.256Z,5.36
2023-04-19T06:04:13.162Z,5.40
2023-04-19T06:06:39.952Z,5.54
2023-04-19T06:09:07.221Z,5.55
2023-04-19T06:11:42.944Z,5.65
2023-04-19T06:14:16.822Z,5.79
2023-04-19T06:16:43.635Z,5.85
2023-04-19T06:19:10.347Z,5.94
2023-04-19T06:21:37.071Z,5.97
2023-04-19T06:24:04.026Z,6.01
2023-04-19T06:26:30.667Z,6.00
2023-04-19T06:28:57.414Z,5.91
2023-04-19T06:31:24.380Z,5.91
2023-04-19T06:33:51.193Z,5.94
2023-04-19T06:36:17.933Z,5.91
2023-04-19T06:38:46.305Z,5.98
2023-04-19T06:41:13.317Z,6.07
2023-04-19T06:43:40.997Z,6.15
2023-04-19T06:46:07.948Z,6.30
2023-04-19T06:48:35.218Z,6.45
2023-04-19T06:51:02.090Z,6.40
2023-04-19T06:53:28.783Z,6.29
2023-04-19T06:56:05.157Z,6.45
2023-04-19T06:58:34.460Z,6.70
2023-04-19T07:01:03.282Z,6.86
2023-04-19T07:03:30.144Z,6.77
2023-04-19T07:05:57.171Z,6.88
2023-04-19T07:08:27.911Z,7.13
2023-04-19T07:10:58.941Z,7.40
2023-04-19T07:13:25.545Z,7.49
2023-04-19T07:15:52.212Z,7.57
2023-04-19T07:18:18.913Z,7.78
2023-04-19T07:20:48.889Z,7.62
2023-04-19T07:23:15.920Z,7.55
2023-04-19T07:25:42.562Z,7.72
2023-04-19T07:28:09.291Z,7.65
2023-04-19T07:30:36.320Z,7.75
2023-04-19T07:33:05.016Z,7.97
2023-04-19T07:35:31.841Z,7.54
2023-04-19T07:37:58.467Z,7.53
2023-04-19T07:40:25.127Z,7.65
2023-04-19T07:42:51.814Z,7.78
2023-04-19T07:45:18.499Z,7.59
2023-04-19T07:47:45.460Z,7.63
2023-04-19T07:50:12.657Z,7.49
2023-04-19T07:52:39.445Z,7.61
2023-04-19T07:55:06.948Z,7.70
2023-04-19T07:57:35.250Z,7.90
2023-04-19T08:00:02.380Z,7.96
2023-04-19T08:02:29.140Z,8.04
2023-04-19T08:04:56.617Z,8.24
2023-04-19T08:07:23.784Z,8.26
2023-04-19T08:09:50.401Z,8.27
2023-04-19T08:12:30.961Z,8.64
2023-04-19T08:15:07.877Z,8.40
2023-04-19T08:17:44.064Z,8.44
2023-04-19T08:20:12.307Z,8.45
2023-04-19T08:22:39.878Z,8.31
2023-04-19T08:25:07.574Z,8.40
2023-04-19T08:27:34.266Z,8.58
2023-04-19T08:30:00.894Z,8.62
2023-04-19T08:32:27.572Z,8.41
2023-04-19T08:34:54.253Z,8.44
2023-04-19T08:37:20.973Z,8.53
2023-04-19T08:39:47.597Z,8.45
2023-04-19T08:45:02.149Z,8.46
2023-04-19T08:47:34.498Z,8.35
2023-04-19T08:52:47.844Z,8.19
2023-04-19T08:55:19.586Z,8.20
2023-04-19T08:57:46.395Z,8.26
2023-04-19T09:00:13.389Z,8.37
2023-04-19T09:02:53.346Z,8.43
2023-04-19T09:05:21.100Z,8.29
2023-04-19T09:07:48.173Z,8.35
2023-04-19T09:10:20.611Z,8.28
2023-04-19T09:13:04.497Z,8.21
2023-04-19T09:15:41.902Z,8.22
2023-04-19T09:18:10.245Z,8.31
2023-04-19T09:20:42.566Z,8.33
2023-04-19T09:23:12.751Z,8.48
2023-04-19T09:26:05.735Z,8.46
2023-04-19T09:28:28.417Z,8.46
2023-04-19T09:31:03.532Z,8.70
2023-04-19T09:33:40.068Z,8.66
2023-04-19T09:36:08.230Z,8.59
2023-04-19T09:38:50.478Z,8.55
2023-04-19T09:41:20.860Z,8.54
2023-04-19T09:46:37.131Z,8.71
2023-04-19T09:49:27.952Z,8.60
2023-04-19T09:52:05.519Z,8.61
2023-04-19T09:54:32.830Z,8.73
2023-04-19T09:57:01.708Z,8.85
2023-04-19T09:59:28.584Z,8.90
2023-04-19T10:01:56.613Z,9.03
2023-04-19T10:04:33.552Z,8.96
2023-04-19T10:07:29.082Z,8.98
2023-04-19T10:10:05.030Z,9.13
2023-04-19T10:13:03.966Z,9.11
2023-04-19T10:15:33.863Z,9.12
2023-04-19T10:18:10.228Z,9.21
2023-04-19T10:20:47.306Z,9.24
2023-04-19T10:23:14.003Z,9.25
2023-04-19T10:25:40.982Z,9.34
2023-04-19T10:28:07.620Z,9.37
2023-04-19T10:30:34.429Z,9.44
2023-04-19T10:33:03.006Z,9.31
2023-04-19T10:35:37.865Z,9.42
2023-04-19T10:38:13.044Z,9.53
2023-04-19T10:41:01.039Z,9.57
2023-04-19T10:43:32.994Z,9.66
2023-04-19T10:46:01.749Z,9.87
2023-04-19T10:48:33.587Z,9.84
2023-04-19T10:51:16.070Z,9.95
2023-04-19T10:53:50.903Z,10.20
2023-04-19T10:56:34.364Z,10.42
2023-04-19T10:59:13.334Z,10.49
2023-04-19T11:02:28.223Z,10.62
2023-04-19T11:04:55.039Z,10.51
2023-04-19T11:07:22.445Z,10.74
2023-04-19T11:09:50.117Z,10.76
2023-04-19T11:12:21.074Z,10.73
2023-04-19T11:14:50.921Z,10.71
2023-04-19T11:17:17.567Z,10.36
2023-04-19T11:19:57.045Z,10.29
2023-04-19T11:22:39.800Z,10.34
2023-04-19T11:25:10.457Z,10.93
2023-04-19T11:27:38.101Z,10.55
2023-04-19T11:30:05.883Z,10.81
2023-04-19T11:32:33.060Z,10.94
2023-04-19T11:35:05.245Z,10.50
2023-04-19T11:37:36.492Z,10.24
2023-04-19T11:40:05.489Z,10.34
2023-04-19T11:42:32.611Z,10.94
2023-04-19T11:45:00.005Z,11.10
2023-04-19T11:47:27.666Z,10.69
2023-04-19T11:49:58.154Z,10.57
2023-04-19T11:52:26.412Z,10.56
2023-04-19T11:54:53.779Z,11.25
2023-04-19T11:57:31.393Z,10.95
2023-04-19T12:00:12.167Z,11.26
2023-04-19T12:02:40.252Z,10.89
2023-04-19T12:05:12.069Z,11.48
2023-04-19T12:07:59.190Z,11.08
2023-04-19T12:10:27.136Z,10.87
2023-04-19T12:12:53.912Z,11.51
2023-04-19T12:15:22.438Z,11.41
2023-04-19T12:18:02.403Z,11.49
2023-04-19T12:20:43.588Z,11.13
2023-04-19T12:23:13.835Z,10.85
2023-04-19T12:25:41.469Z,11.20
2023-04-19T12:28:08.159Z,10.89
2023-04-19T12:30:38.719Z,11.04
2023-04-19T12:33:07.078Z,11.09
2023-04-19T12:35:34.937Z,11.13
2023-04-19T12:38:02.904Z,10.77
2023-04-19T12:40:30.635Z,11.22
2023-04-19T12:42:57.414Z,11.73
2023-04-19T12:45:24.112Z,12.25
2023-04-19T12:47:51.180Z,11.86
2023-04-19T12:50:17.791Z,12.27
2023-04-19T12:52:46.104Z,12.05
2023-04-19T12:55:12.865Z,11.58
2023-04-19T12:57:39.740Z,11.37
2023-04-19T13:00:07.541Z,11.07
2023-04-19T13:02:35.193Z,11.16
2023-04-19T13:05:02.406Z,10.90
2023-04-19T13:07:29.197Z,11.00
2023-04-19T13:09:57.007Z,11.25
2023-04-19T13:12:24.215Z,11.68
2023-04-19T13:14:52.424Z,11.89
2023-04-19T13:17:20.086Z,11.99
2023-04-19T13:19:47.549Z,12.42
2023-04-19T13:22:14.446Z,12.72
2023-04-19T13:24:41.198Z,12.67
2023-04-19T13:27:09.108Z,12.90
2023-04-19T13:29:36.300Z,13.09
2023-04-19T13:32:03.114Z,13.30
2023-04-19T13:34:29.759Z,12.75
2023-04-19T13:36:57.721Z,12.27
2023-04-19T13:39:24.594Z,11.90
2023-04-19T13:41:51.362Z,11.67
2023-04-19T13:44:18.287Z,11.29
2023-04-19T13:46:45.283Z,11.19
2023-04-19T13:49:11.988Z,11.06
2023-04-19T13:51:48.963Z,10.94
2023-04-19T13:54:21.207Z,11.09
2023-04-19T13:56:50.581Z,11.59
2023-04-19T13:59:18.730Z,12.05
2023-04-19T14:01:45.458Z,11.53
2023-04-19T14:04:12.267Z,11.26
2023-04-19T14:06:39.327Z,10.95
2023-04-19T14:09:05.930Z,10.73
2023-04-19T14:11:32.608Z,10.62
2023-04-19T14:13:59.299Z,10.55
2023-04-19T14:16:46.484Z,11.40
2023-04-19T14:19:13.213Z,10.85
2023-04-19T14:21:39.877Z,10.74
2023-04-19T14:24:06.573Z,11.33
2023-04-19T14:26:33.176Z,11.59
2023-04-19T14:28:59.962Z,11.70
2023-04-19T14:31:26.669Z,11.86
2023-04-19T14:33:53.340Z,12.13
2023-04-19T14:36:20.030Z,12.32
2023-04-19T14:38:46.735Z,12.67
2023-04-19T14:41:13.417Z,12.96
2023-04-19T14:43:40.086Z,13.03
2023-04-19T14:46:08.911Z,12.84
2023-04-19T14:48:35.606Z,12.43
2023-04-19T14:51:02.311Z,12.05
2023-04-19T14:53:28.970Z,11.76
2023-04-19T14:55:55.850Z,11.41
2023-04-19T14:58:22.542Z,11.30
2023-04-19T15:00:49.147Z,11.27
2023-04-19T15:03:17.267Z,11.12
2023-04-19T15:05:44.312Z,11.01
2023-04-19T15:08:23.652Z,10.86
2023-04-19T15:10:56.620Z,10.84
2023-04-19T15:13:23.311Z,10.73
2023-04-19T15:15:49.951Z,10.61
2023-04-19T15:21:56.405Z,10.78
2023-04-19T15:24:23.118Z,10.74
2023-04-19T15:26:49.866Z,10.83
2023-04-19T15:29:16.781Z,11.12
2023-04-19T15:31:43.624Z,11.04
2023-04-19T15:34:10.835Z,11.22
2023-04-19T15:36:37.468Z,11.37
2023-04-19T15:39:04.424Z,11.33
2023-04-19T15:41:31.055Z,11.20
2023-04-19T15:44:51.920Z,11.30
2023-04-19T15:47:18.623Z,11.18
2023-04-19T15:49:47.344Z,10.96
2023-04-19T15:52:14.230Z,10.45
2023-04-19T15:54:41.033Z,10.40
2023-04-19T15:57:07.678Z,10.22
2023-04-19T15:59:34.374Z,10.14
2023-04-19T16:02:01.129Z,10.07
2023-04-19T16:04:27.936Z,9.90
2023-04-19T16:06:55.463Z,9.90
2023-04-19T16:09:22.801Z,9.85
2023-04-19T16:11:49.449Z,9.79
2023-04-19T16:14:16.332Z,9.88
2023-04-19T16:16:43.072Z,9.99
2023-04-19T16:19:09.836Z,10.16
2023-04-19T16:21:36.507Z,10.15
2023-04-19T16:24:03.284Z,10.22
2023-04-19T16:26:30.040Z,10.44
2023-04-19T16:28:56.793Z,10.45
2023-04-19T16:31:23.569Z,10.07
2023-04-19T16:33:50.431Z,9.81
2023-04-19T16:36:17.101Z,9.63
2023-04-19T16:38:43.733Z,9.69
2023-04-19T16:41:11.560Z,9.67
2023-04-19T16:43:38.397Z,9.62
2023-04-19T16:46:07.145Z,9.62
2023-04-19T16:48:33.951Z,9.58
2023-04-19T16:51:00.577Z,9.61
2023-04-19T16:53:27.297Z,9.60
2023-04-19T16:55:56.234Z,9.46
2023-04-19T16:58:23.410Z,9.45
2023-04-19T17:00:50.090Z,9.33
2023-04-19T17:03:17.005Z,9.22
2023-04-19T17:05:43.723Z,9.20
2023-04-19T17:08:12.237Z,9.18
2023-04-19T17:10:38.953Z,9.21
2023-04-19T17:13:05.843Z,9.16
2023-04-19T17:15:33.154Z,9.24
2023-04-19T17:17:59.945Z,9.26
2023-04-19T17:20:26.676Z,9.28
2023-04-19T17:22:53.307Z,9.26
2023-04-19T17:25:21.774Z,9.22
2023-04-19T17:27:49.040Z,9.20
2023-04-19T17:30:16.288Z,9.19
2023-04-19T17:32:42.950Z,9.20
2023-04-19T17:35:09.712Z,9.06
2023-04-19T17:37:36.764Z,8.99
2023-04-19T17:40:03.994Z,9.00
2023-04-19T17:42:31.781Z,8.91
2023-04-19T17:45:00.305Z,8.91
2023-04-19T17:47:27.495Z,8.91
2023-04-19T17:50:06.260Z,8.84
2023-04-19T17:52:33.259Z,8.78
2023-04-19T17:55:00.490Z,8.71
2023-04-19T17:57:29.936Z,8.69
2023-04-19T17:59:56.495Z,8.59
2023-04-19T18:02:24.123Z,8.58
2023-04-19T18:04:51.045Z,8.55
2023-04-19T18:07:17.717Z,8.48
2023-04-19T18:09:44.482Z,8.46
2023-04-19T18:12:11.335Z,8.43
2023-04-19T18:14:38.212Z,8.35
2023-04-19T18:17:06.421Z,8.29
2023-04-19T18:19:33.126Z,8.26
2023-04-19T18:22:01.286Z,8.19
2023-04-19T18:24:28.267Z,8.14
2023-04-19T18:26:55.547Z,8.08
2023-04-19T18:29:24.277Z,8.05
2023-04-19T18:31:52.896Z,7.95
2023-04-19T18:34:19.970Z,7.85
2023-04-19T18:36:46.733Z,7.80
2023-04-19T18:39:13.989Z,7.77
2023-04-19T18:41:41.169Z,7.72
2023-04-19T18:44:34.804Z,7.66
2023-04-19T18:46:54.524Z,7.59
2023-04-19T18:49:21.885Z,7.56
2023-04-19T18:51:48.597Z,7.54
2023-04-19T18:54:15.337Z,7.48
2023-04-19T18:57:11.673Z,7.48
2023-04-19T18:59:28.674Z,7.43
2023-04-19T19:01:56.648Z,7.40
2023-04-19T19:06:54.011Z,7.42
2023-04-19T19:09:22.850Z,7.44
2023-04-19T19:11:56.572Z,7.44
2023-04-19T19:14:23.789Z,7.46
2023-04-19T19:16:52.340Z,7.50
2023-04-19T19:19:22.518Z,7.54
2023-04-19T19:21:49.494Z,7.58
2023-04-19T19:24:16.216Z,7.62
2023-04-19T19:26:42.855Z,7.67
2023-04-19T19:29:09.672Z,7.73
2023-04-19T19:31:36.661Z,7.73
2023-04-19T19:34:13.814Z,7.80
2023-04-19T19:36:49.189Z,7.77
2023-04-19T19:39:16.212Z,7.76
2023-04-19T19:44:13.069Z,7.74
2023-04-19T19:46:40.024Z,7.69
2023-04-19T19:49:06.844Z,7.66
2023-04-19T19:54:03.584Z,7.39
2023-04-19T19:56:30.226Z,7.24
2023-04-19T19:58:57.764Z,7.13
2023-04-19T20:01:24.630Z,7.11
2023-04-19T20:03:51.621Z,6.94
2023-04-19T20:07:13.477Z,6.80
2023-04-19T20:09:05.274Z,6.74
2023-04-19T20:11:32.037Z,6.70
2023-04-19T20:13:58.654Z,6.66
2023-04-19T20:16:25.522Z,6.55
2023-04-19T20:18:52.709Z,6.56
2023-04-19T20:21:20.606Z,6.38
2023-04-19T20:23:47.308Z,6.35
2023-04-19T20:26:13.960Z,6.33
2023-04-19T20:28:40.711Z,6.26
2023-04-19T20:31:07.340Z,6.27
2023-04-19T20:33:33.954Z,6.20
2023-04-19T20:36:00.649Z,6.14
2023-04-19T20:38:27.290Z,6.16
2023-04-19T20:40:55.192Z,6.16
2023-04-19T20:43:21.784Z,6.21
2023-04-19T20:45:48.494Z,6.18
2023-04-19T20:48:15.320Z,6.15
2023-04-19T20:50:42.692Z,6.05
2023-04-19T20:53:09.284Z,6.06
2023-04-19T20:55:36.125Z,5.99
2023-04-19T20:58:03.451Z,5.95
2023-04-19T21:00:30.219Z,5.94
2023-04-19T21:02:56.990Z,5.88
2023-04-19T21:05:23.839Z,5.88
2023-04-19T21:07:50.547Z,5.85
2023-04-19T21:10:17.494Z,5.86
2023-04-19T21:12:44.693Z,5.84
2023-04-19T21:15:12.205Z,5.75
2023-04-19T21:17:39.548Z,5.70
2023-04-19T21:20:12.286Z,5.72
2023-04-19T21:22:43.507Z,5.64
2023-04-19T21:25:12.303Z,5.64
2023-04-19T21:27:40.502Z,5.75
2023-04-19T21:30:08.098Z,5.65
2023-04-19T21:32:34.989Z,5.64
2023-04-19T21:35:01.875Z,5.58
2023-04-19T21:37:28.869Z,5.56
2023-04-19T21:39:56.187Z,5.62
2023-04-19T21:42:22.820Z,5.58
2023-04-19T21:44:49.511Z,5.60
2023-04-19T21:47:16.157Z,5.61
2023-04-19T21:49:42.732Z,5.66
2023-04-19T21:52:09.450Z,5.63
2023-04-19T21:54:36.061Z,5.58
2023-04-19T21:57:02.960Z,5.64
2023-04-19T22:01:39.955Z,5.25
2023-04-19T22:04:06.702Z,5.17
2023-04-19T22:06:33.670Z,5.08
2023-04-19T22:09:00.384Z,4.92
2023-04-19T22:11:29.047Z,4.84
2023-04-19T22:13:55.694Z,4.84
2023-04-19T22:16:22.402Z,4.83
2023-04-19T22:18:49.148Z,4.73
2023-04-19T22:21:15.880Z,4.61
2023-04-19T22:23:42.659Z,4.61
2023-04-19T22:26:09.371Z,4.72
2023-04-19T22:28:36.047Z,4.77
2023-04-19T22:31:02.722Z,4.78
2023-04-19T22:33:29.862Z,4.71
2023-04-19T22:35:56.579Z,4.68
2023-04-19T22:38:23.208Z,4.74
2023-04-19T22:40:49.867Z,4.69
2023-04-19T22:43:16.617Z,4.59
2023-04-19T22:45:48.017Z,4.49
2023-04-19T22:48:15.159Z,4.41
2023-04-19T22:50:44.598Z,4.37
2023-04-19T22:53:12.743Z,4.25
2023-04-19T22:55:42.984Z,4.24
2023-04-19T22:58:10.655Z,4.20
2023-04-19T23:00:37.894Z,4.17
2023-04-19T23:03:04.682Z,4.23
2023-04-19T23:05:31.546Z,4.10
2023-04-19T23:08:04.668Z,4.04
2023-04-19T23:10:31.907Z,4.11
2023-04-19T23:12:58.666Z,4.14
2023-04-19T23:15:25.279Z,4.14
2023-04-19T23:17:53.085Z,4.15
2023-04-19T23:20:19.705Z,4.08
2023-04-19T23:22:46.352Z,4.11
2023-04-19T23:25:13.090Z,4.12
2023-04-19T23:27:39.746Z,4.13
2023-04-19T23:30:07.722Z,4.18
2023-04-19T23:32:34.582Z,4.17
2023-04-19T23:35:01.235Z,4.17
2023-04-19T23:37:27.851Z,4.18
2023-04-19T23:39:54.447Z,4.21
2023-04-19T23:42:21.104Z,4.20
2023-04-19T23:44:47.667Z,4.19
2023-04-19T23:47:14.612Z,4.13
2023-04-19T23:49:41.172Z,4.06
2023-04-19T23:52:07.747Z,3.99
2023-04-19T23:54:34.332Z,3.95
2023-04-19T23:57:01.908Z,3.96
2023-04-19T23:59:29.092Z,3.95
